Etusivu
METAR-TAF:

METAR-TAF

Lentoasemat :

Evenes, Norja

Harstadin/Narvikin lentoasema

Leveyspiiri: 68-31N, Pituuspiiri: 016-41E, korkeus merenpinnasta: 26 m

Tämänhetkinen sää

Tämä raportti tehtiin 54 minuuttia sitten, kello 05.50 UTC
Tuuli 4 kn pohjoisesta/koillisesta, vaihdellen pohjoisen/luoteen ja idän välillä
Lämpötila 8°C
Kosteus 93%
Ilmanpaine 1015 hPa
Näkyvyys 10 km tai enemmän
ei pilviä alle 1500 m:ssä eikä cumulonimbus-pilviä

METAR: ENEV 240550Z 02004KT 330V100 CAVOK 08/07 Q1015 RMK WIND 1400FT 08017KT

Aika: 08:44 (06:44 UTC)

Sääennuste

Tämä raportti tehtiin 1 tunti ja 44 minuuttia sitten, kello 05.00 UTC
Ennuste voimassa 24. päivästä klo 06 UTC - 24. päivään klo 15 UTC
Tuuli 8 kn idästä/koillisesta
Näkyvyys 10 km tai enemmän
Muutamia pilviä 4000 ft:n korkeudessa

TAF: ENEV 240500Z 2406/2415 06008KT 9999 FEW040

Säähavainnot ja -ennusteet yli 4000 lentoasemalta (METAR- ja TAF-raportit).

Käytössä olevat sääasemat on merkitty karttaan keltaisilla ja punaisilla pisteillä.

Aseta hiiri pisteen päälle nähdäksesi sääaseman nimen.

Klikkaa sitten nähdäksesi säähavainnot ja -ennusteet.

Kartan vaihtaminen: klikkaa mustalla rastilla varustettuja vihreitä pisteitä, niin voit zoomata sisään; viivalla varustettua vihreää pistettä, niin voit zoomata ulos tai vihreitä nuolia, niin pääset viereisille kartoille.


METAR-TAF: